sensor_id;sensor_type;location;lat;lon;timestamp;P1;durP1;ratioP1;P2;durP2;ratioP2
9481;SDS011;4779;48.062;11.672;2024-03-06T00:00:07;18.13;;;15.70;;
9481;SDS011;4779;48.062;11.672;2024-03-06T00:02:35;18.07;;;16.07;;
9481;SDS011;4779;48.062;11.672;2024-03-06T00:05:02;17.10;;;15.30;;
9481;SDS011;4779;48.062;11.672;2024-03-06T00:07:30;17.40;;;15.60;;
9481;SDS011;4779;48.062;11.672;2024-03-06T00:09:58;18.13;;;16.10;;
9481;SDS011;4779;48.062;11.672;2024-03-06T00:12:25;18.63;;;16.63;;
9481;SDS011;4779;48.062;11.672;2024-03-06T00:14:52;18.70;;;16.73;;
9481;SDS011;4779;48.062;11.672;2024-03-06T00:17:19;19.23;;;17.20;;
9481;SDS011;4779;48.062;11.672;2024-03-06T00:19:47;17.57;;;15.77;;
9481;SDS011;4779;48.062;11.672;2024-03-06T00:22:14;19.13;;;16.67;;
9481;SDS011;4779;48.062;11.672;2024-03-06T00:24:42;18.10;;;16.20;;
9481;SDS011;4779;48.062;11.672;2024-03-06T00:27:10;17.37;;;15.57;;
9481;SDS011;4779;48.062;11.672;2024-03-06T00:29:37;17.77;;;15.97;;
9481;SDS011;4779;48.062;11.672;2024-03-06T00:32:05;17.43;;;15.63;;
9481;SDS011;4779;48.062;11.672;2024-03-06T00:34:32;18.63;;;16.67;;
9481;SDS011;4779;48.062;11.672;2024-03-06T00:36:59;19.20;;;16.80;;
9481;SDS011;4779;48.062;11.672;2024-03-06T00:39:27;19.30;;;17.30;;
9481;SDS011;4779;48.062;11.672;2024-03-06T00:41:54;19.17;;;16.53;;
9481;SDS011;4779;48.062;11.672;2024-03-06T00:44:22;17.33;;;15.53;;
9481;SDS011;4779;48.062;11.672;2024-03-06T00:46:49;15.87;;;14.20;;
9481;SDS011;4779;48.062;11.672;2024-03-06T00:49:17;18.40;;;16.50;;
9481;SDS011;4779;48.062;11.672;2024-03-06T00:51:44;17.60;;;15.80;;
9481;SDS011;4779;48.062;11.672;2024-03-06T00:54:11;18.10;;;16.30;;
9481;SDS011;4779;48.062;11.672;2024-03-06T00:56:38;16.63;;;14.83;;
9481;SDS011;4779;48.062;11.672;2024-03-06T00:59:05;17.53;;;15.73;;
9481;SDS011;4779;48.062;11.672;2024-03-06T01:01:34;16.23;;;14.63;;
9481;SDS011;4779;48.062;11.672;2024-03-06T01:04:01;15.63;;;14.10;;
9481;SDS011;4779;48.062;11.672;2024-03-06T01:06:28;16.00;;;14.30;;
9481;SDS011;4779;48.062;11.672;2024-03-06T01:08:55;16.07;;;14.47;;
9481;SDS011;4779;48.062;11.672;2024-03-06T01:11:23;16.30;;;14.60;;
9481;SDS011;4779;48.062;11.672;2024-03-06T01:13:51;16.87;;;15.10;;
9481;SDS011;4779;48.062;11.672;2024-03-06T01:16:18;16.37;;;14.70;;
9481;SDS011;4779;48.062;11.672;2024-03-06T01:18:47;16.93;;;15.17;;
9481;SDS011;4779;48.062;11.672;2024-03-06T01:21:14;15.33;;;13.80;;
9481;SDS011;4779;48.062;11.672;2024-03-06T01:23:41;16.57;;;14.87;;
9481;SDS011;4779;48.062;11.672;2024-03-06T01:26:08;16.63;;;14.80;;
9481;SDS011;4779;48.062;11.672;2024-03-06T01:28:35;16.27;;;14.57;;
9481;SDS011;4779;48.062;11.672;2024-03-06T01:31:02;16.57;;;14.87;;
9481;SDS011;4779;48.062;11.672;2024-03-06T01:33:30;17.23;;;15.43;;
9481;SDS011;4779;48.062;11.672;2024-03-06T01:35:58;18.47;;;16.50;;
9481;SDS011;4779;48.062;11.672;2024-03-06T01:38:25;18.03;;;15.87;;
9481;SDS011;4779;48.062;11.672;2024-03-06T01:40:52;18.90;;;16.20;;
9481;SDS011;4779;48.062;11.672;2024-03-06T01:43:20;18.43;;;16.43;;
9481;SDS011;4779;48.062;11.672;2024-03-06T01:45:48;16.93;;;15.23;;
9481;SDS011;4779;48.062;11.672;2024-03-06T01:48:15;16.73;;;15.03;;
9481;SDS011;4779;48.062;11.672;2024-03-06T01:50:43;18.93;;;16.43;;
9481;SDS011;4779;48.062;11.672;2024-03-06T01:53:12;18.77;;;16.40;;
9481;SDS011;4779;48.062;11.672;2024-03-06T01:55:41;18.80;;;16.90;;
9481;SDS011;4779;48.062;11.672;2024-03-06T01:58:08;18.43;;;16.53;;
9481;SDS011;4779;48.062;11.672;2024-03-06T02:00:35;18.63;;;16.50;;
9481;SDS011;4779;48.062;11.672;2024-03-06T02:03:03;21.23;;;18.07;;
9481;SDS011;4779;48.062;11.672;2024-03-06T02:05:30;19.23;;;17.00;;
9481;SDS011;4779;48.062;11.672;2024-03-06T02:07:59;12.87;;;11.57;;
9481;SDS011;4779;48.062;11.672;2024-03-06T02:10:28;4.80;;;4.30;;
9481;SDS011;4779;48.062;11.672;2024-03-06T02:12:56;4.10;;;3.70;;
9481;SDS011;4779;48.062;11.672;2024-03-06T02:15:23;3.30;;;3.00;;
9481;SDS011;4779;48.062;11.672;2024-03-06T02:17:50;3.60;;;3.30;;
9481;SDS011;4779;48.062;11.672;2024-03-06T02:20:22;3.40;;;3.10;;
9481;SDS011;4779;48.062;11.672;2024-03-06T02:22:49;2.60;;;2.40;;
9481;SDS011;4779;48.062;11.672;2024-03-06T02:25:16;2.03;;;1.93;;
9481;SDS011;4779;48.062;11.672;2024-03-06T02:27:44;2.10;;;2.00;;
9481;SDS011;4779;48.062;11.672;2024-03-06T02:30:13;1.97;;;1.87;;
9481;SDS011;4779;48.062;11.672;2024-03-06T02:32:40;2.33;;;2.07;;
9481;SDS011;4779;48.062;11.672;2024-03-06T02:35:08;1.80;;;1.70;;
9481;SDS011;4779;48.062;11.672;2024-03-06T02:37:37;1.67;;;1.57;;
9481;SDS011;4779;48.062;11.672;2024-03-06T02:40:05;1.87;;;1.63;;
9481;SDS011;4779;48.062;11.672;2024-03-06T02:42:35;1.90;;;1.80;;
9481;SDS011;4779;48.062;11.672;2024-03-06T02:45:04;1.50;;;1.40;;
9481;SDS011;4779;48.062;11.672;2024-03-06T02:47:32;1.60;;;1.50;;
9481;SDS011;4779;48.062;11.672;2024-03-06T02:49:59;1.47;;;1.37;;
9481;SDS011;4779;48.062;11.672;2024-03-06T02:52:26;1.07;;;1.07;;
9481;SDS011;4779;48.062;11.672;2024-03-06T02:54:55;1.20;;;1.10;;
9481;SDS011;4779;48.062;11.672;2024-03-06T02:57:22;1.23;;;1.20;;
9481;SDS011;4779;48.062;11.672;2024-03-06T02:59:49;0.87;;;0.87;;
9481;SDS011;4779;48.062;11.672;2024-03-06T03:02:16;1.30;;;1.13;;
9481;SDS011;4779;48.062;11.672;2024-03-06T03:04:43;1.00;;;1.00;;
9481;SDS011;4779;48.062;11.672;2024-03-06T03:07:10;1.00;;;1.00;;
9481;SDS011;4779;48.062;11.672;2024-03-06T03:09:37;1.07;;;1.07;;
9481;SDS011;4779;48.062;11.672;2024-03-06T03:12:06;1.10;;;1.03;;
9481;SDS011;4779;48.062;11.672;2024-03-06T03:14:33;1.20;;;1.10;;
9481;SDS011;4779;48.062;11.672;2024-03-06T03:17:00;0.97;;;0.97;;
9481;SDS011;4779;48.062;11.672;2024-03-06T03:19:27;1.40;;;1.30;;
9481;SDS011;4779;48.062;11.672;2024-03-06T03:21:54;2.30;;;2.10;;
9481;SDS011;4779;48.062;11.672;2024-03-06T03:24:21;2.83;;;2.63;;
9481;SDS011;4779;48.062;11.672;2024-03-06T03:26:50;2.70;;;2.50;;
9481;SDS011;4779;48.062;11.672;2024-03-06T03:29:19;2.57;;;2.37;;
9481;SDS011;4779;48.062;11.672;2024-03-06T03:31:47;2.13;;;2.00;;
9481;SDS011;4779;48.062;11.672;2024-03-06T03:34:14;1.23;;;1.13;;
9481;SDS011;4779;48.062;11.672;2024-03-06T03:36:41;1.23;;;1.13;;
9481;SDS011;4779;48.062;11.672;2024-03-06T03:39:11;1.03;;;1.03;;
9481;SDS011;4779;48.062;11.672;2024-03-06T03:41:44;1.20;;;1.10;;
9481;SDS011;4779;48.062;11.672;2024-03-06T03:44:11;0.97;;;0.97;;
9481;SDS011;4779;48.062;11.672;2024-03-06T03:46:40;1.20;;;1.10;;
9481;SDS011;4779;48.062;11.672;2024-03-06T03:49:07;1.00;;;1.00;;
9481;SDS011;4779;48.062;11.672;2024-03-06T03:51:35;1.17;;;1.17;;
9481;SDS011;4779;48.062;11.672;2024-03-06T03:54:02;1.67;;;1.57;;
9481;SDS011;4779;48.062;11.672;2024-03-06T03:56:30;1.50;;;1.40;;
9481;SDS011;4779;48.062;11.672;2024-03-06T03:58:57;1.00;;;1.00;;
9481;SDS011;4779;48.062;11.672;2024-03-06T04:01:24;1.07;;;1.07;;
9481;SDS011;4779;48.062;11.672;2024-03-06T04:03:53;1.00;;;1.00;;
9481;SDS011;4779;48.062;11.672;2024-03-06T04:06:20;1.40;;;1.30;;
9481;SDS011;4779;48.062;11.672;2024-03-06T04:08:47;1.37;;;1.27;;
9481;SDS011;4779;48.062;11.672;2024-03-06T04:11:14;1.70;;;1.40;;
9481;SDS011;4779;48.062;11.672;2024-03-06T04:13:42;1.70;;;1.60;;
9481;SDS011;4779;48.062;11.672;2024-03-06T04:16:09;1.80;;;1.70;;
9481;SDS011;4779;48.062;11.672;2024-03-06T04:18:36;2.50;;;2.30;;
9481;SDS011;4779;48.062;11.672;2024-03-06T04:21:05;3.10;;;2.90;;
9481;SDS011;4779;48.062;11.672;2024-03-06T04:23:32;3.23;;;2.93;;
9481;SDS011;4779;48.062;11.672;2024-03-06T04:26:00;3.87;;;3.57;;
9481;SDS011;4779;48.062;11.672;2024-03-06T04:28:27;3.13;;;2.87;;
9481;SDS011;4779;48.062;11.672;2024-03-06T04:30:54;3.00;;;2.80;;
9481;SDS011;4779;48.062;11.672;2024-03-06T04:33:22;3.43;;;3.23;;
9481;SDS011;4779;48.062;11.672;2024-03-06T04:35:49;3.40;;;3.10;;
9481;SDS011;4779;48.062;11.672;2024-03-06T04:38:18;2.70;;;2.50;;
9481;SDS011;4779;48.062;11.672;2024-03-06T04:40:45;2.70;;;2.50;;
9481;SDS011;4779;48.062;11.672;2024-03-06T04:43:12;2.30;;;2.10;;
9481;SDS011;4779;48.062;11.672;2024-03-06T04:45:39;1.90;;;1.70;;
9481;SDS011;4779;48.062;11.672;2024-03-06T04:48:06;1.60;;;1.50;;
9481;SDS011;4779;48.062;11.672;2024-03-06T04:50:34;1.33;;;1.23;;
9481;SDS011;4779;48.062;11.672;2024-03-06T04:53:01;1.57;;;1.47;;
9481;SDS011;4779;48.062;11.672;2024-03-06T04:55:29;1.87;;;1.50;;
9481;SDS011;4779;48.062;11.672;2024-03-06T04:57:57;1.60;;;1.50;;
9481;SDS011;4779;48.062;11.672;2024-03-06T05:00:24;1.83;;;1.73;;
9481;SDS011;4779;48.062;11.672;2024-03-06T05:02:51;1.70;;;1.60;;
9481;SDS011;4779;48.062;11.672;2024-03-06T05:05:18;1.47;;;1.33;;
9481;SDS011;4779;48.062;11.672;2024-03-06T05:07:45;2.00;;;1.90;;
9481;SDS011;4779;48.062;11.672;2024-03-06T05:10:12;1.80;;;1.70;;
9481;SDS011;4779;48.062;11.672;2024-03-06T05:12:42;2.70;;;2.47;;
9481;SDS011;4779;48.062;11.672;2024-03-06T05:15:09;2.67;;;2.47;;
9481;SDS011;4779;48.062;11.672;2024-03-06T05:17:36;2.40;;;2.20;;
9481;SDS011;4779;48.062;11.672;2024-03-06T05:20:04;1.80;;;1.70;;
9481;SDS011;4779;48.062;11.672;2024-03-06T05:22:32;1.80;;;1.70;;
9481;SDS011;4779;48.062;11.672;2024-03-06T05:24:59;2.27;;;2.17;;
9481;SDS011;4779;48.062;11.672;2024-03-06T05:27:26;1.43;;;1.33;;
9481;SDS011;4779;48.062;11.672;2024-03-06T05:29:55;1.40;;;1.30;;
9481;SDS011;4779;48.062;11.672;2024-03-06T05:32:22;1.70;;;1.60;;
9481;SDS011;4779;48.062;11.672;2024-03-06T05:34:49;1.53;;;1.43;;
9481;SDS011;4779;48.062;11.672;2024-03-06T05:37:16;1.50;;;1.40;;
9481;SDS011;4779;48.062;11.672;2024-03-06T05:39:44;1.83;;;1.70;;
9481;SDS011;4779;48.062;11.672;2024-03-06T05:42:11;2.33;;;2.13;;
9481;SDS011;4779;48.062;11.672;2024-03-06T05:44:41;2.10;;;2.00;;
9481;SDS011;4779;48.062;11.672;2024-03-06T05:47:09;2.73;;;2.23;;
9481;SDS011;4779;48.062;11.672;2024-03-06T05:49:39;2.40;;;2.20;;
9481;SDS011;4779;48.062;11.672;2024-03-06T05:52:06;1.80;;;1.70;;
9481;SDS011;4779;48.062;11.672;2024-03-06T05:54:33;1.50;;;1.40;;
9481;SDS011;4779;48.062;11.672;2024-03-06T05:57:00;1.40;;;1.30;;
9481;SDS011;4779;48.062;11.672;2024-03-06T05:59:28;1.47;;;1.37;;
9481;SDS011;4779;48.062;11.672;2024-03-06T06:01:55;1.00;;;1.00;;
9481;SDS011;4779;48.062;11.672;2024-03-06T06:04:23;1.10;;;1.10;;
9481;SDS011;4779;48.062;11.672;2024-03-06T06:06:50;1.83;;;1.37;;
9481;SDS011;4779;48.062;11.672;2024-03-06T06:09:18;2.97;;;1.33;;
9481;SDS011;4779;48.062;11.672;2024-03-06T06:11:45;1.40;;;1.30;;
9481;SDS011;4779;48.062;11.672;2024-03-06T06:14:12;1.03;;;1.03;;
9481;SDS011;4779;48.062;11.672;2024-03-06T06:16:40;1.50;;;1.40;;
9481;SDS011;4779;48.062;11.672;2024-03-06T06:19:08;1.10;;;1.10;;
9481;SDS011;4779;48.062;11.672;2024-03-06T06:21:36;1.47;;;1.37;;
9481;SDS011;4779;48.062;11.672;2024-03-06T06:24:03;1.20;;;1.13;;
9481;SDS011;4779;48.062;11.672;2024-03-06T06:26:31;1.10;;;1.10;;
9481;SDS011;4779;48.062;11.672;2024-03-06T06:28:58;1.50;;;1.40;;
9481;SDS011;4779;48.062;11.672;2024-03-06T06:31:25;1.50;;;1.40;;
9481;SDS011;4779;48.062;11.672;2024-03-06T06:33:52;1.60;;;1.50;;
9481;SDS011;4779;48.062;11.672;2024-03-06T06:36:19;2.10;;;1.50;;
9481;SDS011;4779;48.062;11.672;2024-03-06T06:38:48;1.40;;;1.30;;
9481;SDS011;4779;48.062;11.672;2024-03-06T06:41:15;1.67;;;1.53;;
9481;SDS011;4779;48.062;11.672;2024-03-06T06:43:44;2.57;;;1.67;;
9481;SDS011;4779;48.062;11.672;2024-03-06T06:46:11;1.93;;;1.50;;
9481;SDS011;4779;48.062;11.672;2024-03-06T06:48:45;2.10;;;2.00;;
9481;SDS011;4779;48.062;11.672;2024-03-06T06:51:18;2.90;;;2.70;;
9481;SDS011;4779;48.062;11.672;2024-03-06T06:53:46;2.40;;;2.30;;
9481;SDS011;4779;48.062;11.672;2024-03-06T06:56:14;3.60;;;3.30;;
9481;SDS011;4779;48.062;11.672;2024-03-06T06:58:41;3.83;;;3.30;;
9481;SDS011;4779;48.062;11.672;2024-03-06T07:01:08;5.43;;;4.77;;
9481;SDS011;4779;48.062;11.672;2024-03-06T07:03:36;3.90;;;3.60;;
9481;SDS011;4779;48.062;11.672;2024-03-06T07:06:03;4.17;;;3.77;;
9481;SDS011;4779;48.062;11.672;2024-03-06T07:08:31;4.30;;;3.67;;
9481;SDS011;4779;48.062;11.672;2024-03-06T07:10:59;4.03;;;3.30;;
9481;SDS011;4779;48.062;11.672;2024-03-06T07:13:26;3.07;;;2.77;;
9481;SDS011;4779;48.062;11.672;2024-03-06T07:15:53;2.90;;;2.70;;
9481;SDS011;4779;48.062;11.672;2024-03-06T07:18:20;3.23;;;2.93;;
9481;SDS011;4779;48.062;11.672;2024-03-06T07:20:47;3.90;;;3.60;;
9481;SDS011;4779;48.062;11.672;2024-03-06T07:23:14;5.13;;;4.20;;
9481;SDS011;4779;48.062;11.672;2024-03-06T07:25:42;6.23;;;3.60;;
9481;SDS011;4779;48.062;11.672;2024-03-06T07:28:10;3.13;;;2.83;;
9481;SDS011;4779;48.062;11.672;2024-03-06T07:30:38;4.70;;;2.77;;
9481;SDS011;4779;48.062;11.672;2024-03-06T07:33:05;2.53;;;2.33;;
9481;SDS011;4779;48.062;11.672;2024-03-06T07:35:32;2.47;;;2.27;;
9481;SDS011;4779;48.062;11.672;2024-03-06T07:38:01;2.33;;;2.13;;
9481;SDS011;4779;48.062;11.672;2024-03-06T07:40:29;2.77;;;2.50;;
9481;SDS011;4779;48.062;11.672;2024-03-06T07:42:56;2.07;;;1.97;;
9481;SDS011;4779;48.062;11.672;2024-03-06T07:45:26;2.00;;;1.90;;
9481;SDS011;4779;48.062;11.672;2024-03-06T07:47:53;1.70;;;1.60;;
9481;SDS011;4779;48.062;11.672;2024-03-06T07:50:20;1.40;;;1.40;;
9481;SDS011;4779;48.062;11.672;2024-03-06T07:52:48;1.73;;;1.63;;
9481;SDS011;4779;48.062;11.672;2024-03-06T07:55:15;2.03;;;1.90;;
9481;SDS011;4779;48.062;11.672;2024-03-06T07:57:44;1.60;;;1.50;;
9481;SDS011;4779;48.062;11.672;2024-03-06T08:00:11;1.70;;;1.60;;
9481;SDS011;4779;48.062;11.672;2024-03-06T08:02:41;1.90;;;1.70;;
9481;SDS011;4779;48.062;11.672;2024-03-06T08:05:09;2.10;;;1.53;;
9481;SDS011;4779;48.062;11.672;2024-03-06T08:07:37;1.80;;;1.70;;
9481;SDS011;4779;48.062;11.672;2024-03-06T08:10:07;1.80;;;1.70;;
9481;SDS011;4779;48.062;11.672;2024-03-06T08:12:38;1.63;;;1.43;;
9481;SDS011;4779;48.062;11.672;2024-03-06T08:15:06;1.30;;;1.27;;
9481;SDS011;4779;48.062;11.672;2024-03-06T08:17:35;3.00;;;1.70;;
9481;SDS011;4779;48.062;11.672;2024-03-06T08:20:04;1.70;;;1.60;;
9481;SDS011;4779;48.062;11.672;2024-03-06T08:22:32;1.90;;;1.80;;
9481;SDS011;4779;48.062;11.672;2024-03-06T08:25:04;1.70;;;1.60;;
9481;SDS011;4779;48.062;11.672;2024-03-06T08:27:32;2.47;;;2.27;;
9481;SDS011;4779;48.062;11.672;2024-03-06T08:30:00;2.20;;;2.10;;
9481;SDS011;4779;48.062;11.672;2024-03-06T08:32:29;2.50;;;2.27;;
9481;SDS011;4779;48.062;11.672;2024-03-06T08:34:56;3.80;;;3.00;;
9481;SDS011;4779;48.062;11.672;2024-03-06T08:37:26;3.47;;;2.80;;
9481;SDS011;4779;48.062;11.672;2024-03-06T08:39:54;3.30;;;3.00;;
9481;SDS011;4779;48.062;11.672;2024-03-06T08:42:21;3.80;;;3.50;;
9481;SDS011;4779;48.062;11.672;2024-03-06T08:44:48;3.07;;;2.83;;
9481;SDS011;4779;48.062;11.672;2024-03-06T08:47:15;3.30;;;3.00;;
9481;SDS011;4779;48.062;11.672;2024-03-06T08:49:43;3.17;;;2.97;;
9481;SDS011;4779;48.062;11.672;2024-03-06T08:52:10;3.93;;;3.63;;
9481;SDS011;4779;48.062;11.672;2024-03-06T08:54:38;2.70;;;2.50;;
9481;SDS011;4779;48.062;11.672;2024-03-06T08:57:07;2.80;;;2.60;;
9481;SDS011;4779;48.062;11.672;2024-03-06T08:59:35;3.70;;;2.33;;
9481;SDS011;4779;48.062;11.672;2024-03-06T09:02:11;2.50;;;2.30;;
9481;SDS011;4779;48.062;11.672;2024-03-06T09:04:39;2.33;;;2.13;;
9481;SDS011;4779;48.062;11.672;2024-03-06T09:07:06;2.40;;;2.20;;
9481;SDS011;4779;48.062;11.672;2024-03-06T09:09:34;2.57;;;2.37;;
9481;SDS011;4779;48.062;11.672;2024-03-06T09:12:03;1.87;;;1.77;;
9481;SDS011;4779;48.062;11.672;2024-03-06T09:14:31;1.97;;;1.70;;
9481;SDS011;4779;48.062;11.672;2024-03-06T09:16:59;2.50;;;2.30;;
9481;SDS011;4779;48.062;11.672;2024-03-06T09:19:26;2.27;;;2.07;;
9481;SDS011;4779;48.062;11.672;2024-03-06T09:21:53;2.00;;;1.90;;
9481;SDS011;4779;48.062;11.672;2024-03-06T09:24:21;2.30;;;2.20;;
9481;SDS011;4779;48.062;11.672;2024-03-06T09:26:50;2.73;;;2.10;;
9481;SDS011;4779;48.062;11.672;2024-03-06T09:29:19;2.43;;;2.20;;
9481;SDS011;4779;48.062;11.672;2024-03-06T09:31:46;2.50;;;2.30;;
9481;SDS011;4779;48.062;11.672;2024-03-06T09:34:14;2.37;;;2.23;;
9481;SDS011;4779;48.062;11.672;2024-03-06T09:36:41;2.23;;;2.07;;
9481;SDS011;4779;48.062;11.672;2024-03-06T09:39:12;2.00;;;1.90;;
9481;SDS011;4779;48.062;11.672;2024-03-06T09:41:41;1.90;;;1.80;;
9481;SDS011;4779;48.062;11.672;2024-03-06T09:44:09;2.60;;;2.40;;
9481;SDS011;4779;48.062;11.672;2024-03-06T09:46:42;2.53;;;2.03;;
9481;SDS011;4779;48.062;11.672;2024-03-06T09:49:10;2.70;;;1.90;;
9481;SDS011;4779;48.062;11.672;2024-03-06T09:51:39;1.70;;;1.60;;
9481;SDS011;4779;48.062;11.672;2024-03-06T09:54:10;2.53;;;2.10;;
9481;SDS011;4779;48.062;11.672;2024-03-06T09:56:40;2.80;;;1.90;;
9481;SDS011;4779;48.062;11.672;2024-03-06T09:59:08;2.67;;;2.03;;
9481;SDS011;4779;48.062;11.672;2024-03-06T10:01:36;2.50;;;2.30;;
9481;SDS011;4779;48.062;11.672;2024-03-06T10:04:19;3.00;;;1.93;;
9481;SDS011;4779;48.062;11.672;2024-03-06T10:06:46;2.30;;;1.70;;
9481;SDS011;4779;48.062;11.672;2024-03-06T10:09:16;1.87;;;1.50;;
9481;SDS011;4779;48.062;11.672;2024-03-06T10:11:44;2.53;;;2.33;;
9481;SDS011;4779;48.062;11.672;2024-03-06T10:14:11;2.40;;;2.20;;
9481;SDS011;4779;48.062;11.672;2024-03-06T10:16:51;2.30;;;2.10;;
9481;SDS011;4779;48.062;11.672;2024-03-06T10:19:21;2.63;;;2.43;;
9481;SDS011;4779;48.062;11.672;2024-03-06T10:21:49;2.37;;;2.17;;
9481;SDS011;4779;48.062;11.672;2024-03-06T10:24:20;2.97;;;2.67;;
9481;SDS011;4779;48.062;11.672;2024-03-06T10:26:49;3.30;;;3.00;;
9481;SDS011;4779;48.062;11.672;2024-03-06T10:29:19;2.80;;;2.60;;
9481;SDS011;4779;48.062;11.672;2024-03-06T10:31:47;2.90;;;2.60;;
9481;SDS011;4779;48.062;11.672;2024-03-06T10:34:15;2.70;;;2.50;;
9481;SDS011;4779;48.062;11.672;2024-03-06T10:36:44;3.10;;;2.90;;
9481;SDS011;4779;48.062;11.672;2024-03-06T10:39:12;2.80;;;2.60;;
9481;SDS011;4779;48.062;11.672;2024-03-06T10:41:40;2.90;;;2.67;;
9481;SDS011;4779;48.062;11.672;2024-03-06T10:44:09;2.70;;;2.50;;
9481;SDS011;4779;48.062;11.672;2024-03-06T10:46:40;2.77;;;2.57;;
9481;SDS011;4779;48.062;11.672;2024-03-06T10:49:12;2.97;;;2.77;;
9481;SDS011;4779;48.062;11.672;2024-03-06T10:51:40;3.03;;;2.83;;
9481;SDS011;4779;48.062;11.672;2024-03-06T10:54:11;3.97;;;3.67;;
9481;SDS011;4779;48.062;11.672;2024-03-06T10:56:39;2.70;;;2.50;;
9481;SDS011;4779;48.062;11.672;2024-03-06T10:59:09;3.10;;;2.80;;
9481;SDS011;4779;48.062;11.672;2024-03-06T11:01:39;3.03;;;2.73;;
9481;SDS011;4779;48.062;11.672;2024-03-06T11:04:09;3.63;;;2.67;;
9481;SDS011;4779;48.062;11.672;2024-03-06T11:06:37;2.70;;;2.33;;
9481;SDS011;4779;48.062;11.672;2024-03-06T11:09:05;2.50;;;2.30;;
9481;SDS011;4779;48.062;11.672;2024-03-06T11:11:46;2.63;;;2.43;;
9481;SDS011;4779;48.062;11.672;2024-03-06T11:14:14;2.70;;;2.50;;
9481;SDS011;4779;48.062;11.672;2024-03-06T11:16:55;2.60;;;2.30;;
9481;SDS011;4779;48.062;11.672;2024-03-06T11:19:24;4.37;;;2.87;;
9481;SDS011;4779;48.062;11.672;2024-03-06T11:21:51;3.47;;;3.17;;
9481;SDS011;4779;48.062;11.672;2024-03-06T11:24:19;3.80;;;3.33;;
9481;SDS011;4779;48.062;11.672;2024-03-06T11:26:48;3.43;;;3.13;;
9481;SDS011;4779;48.062;11.672;2024-03-06T11:29:17;3.47;;;3.13;;
9481;SDS011;4779;48.062;11.672;2024-03-06T11:32:04;2.87;;;2.60;;
9481;SDS011;4779;48.062;11.672;2024-03-06T11:34:34;4.27;;;3.17;;
9481;SDS011;4779;48.062;11.672;2024-03-06T11:37:05;3.43;;;3.13;;
9481;SDS011;4779;48.062;11.672;2024-03-06T11:39:34;3.10;;;2.80;;
9481;SDS011;4779;48.062;11.672;2024-03-06T11:42:04;3.27;;;2.97;;
9481;SDS011;4779;48.062;11.672;2024-03-06T11:44:33;3.37;;;3.07;;
9481;SDS011;4779;48.062;11.672;2024-03-06T11:47:01;2.97;;;2.77;;
9481;SDS011;4779;48.062;11.672;2024-03-06T11:49:29;2.73;;;2.50;;
9481;SDS011;4779;48.062;11.672;2024-03-06T11:51:59;2.67;;;2.47;;
9481;SDS011;4779;48.062;11.672;2024-03-06T11:54:27;2.37;;;2.17;;
9481;SDS011;4779;48.062;11.672;2024-03-06T11:56:55;3.37;;;2.83;;
9481;SDS011;4779;48.062;11.672;2024-03-06T11:59:24;2.70;;;2.50;;
9481;SDS011;4779;48.062;11.672;2024-03-06T12:01:52;2.40;;;2.20;;
9481;SDS011;4779;48.062;11.672;2024-03-06T12:04:19;3.77;;;3.00;;
9481;SDS011;4779;48.062;11.672;2024-03-06T12:06:47;2.70;;;2.50;;
9481;SDS011;4779;48.062;11.672;2024-03-06T12:09:14;3.30;;;2.50;;
9481;SDS011;4779;48.062;11.672;2024-03-06T12:11:42;2.93;;;2.70;;
9481;SDS011;4779;48.062;11.672;2024-03-06T12:14:13;3.00;;;2.67;;
9481;SDS011;4779;48.062;11.672;2024-03-06T12:16:43;2.90;;;2.67;;
9481;SDS011;4779;48.062;11.672;2024-03-06T12:19:10;2.93;;;2.73;;
9481;SDS011;4779;48.062;11.672;2024-03-06T12:21:38;2.50;;;2.30;;
9481;SDS011;4779;48.062;11.672;2024-03-06T12:24:07;4.20;;;3.13;;
9481;SDS011;4779;48.062;11.672;2024-03-06T12:26:35;2.53;;;2.33;;
9481;SDS011;4779;48.062;11.672;2024-03-06T12:29:03;3.40;;;3.10;;
9481;SDS011;4779;48.062;11.672;2024-03-06T12:31:31;3.13;;;2.83;;
9481;SDS011;4779;48.062;11.672;2024-03-06T12:34:00;2.63;;;2.43;;
9481;SDS011;4779;48.062;11.672;2024-03-06T12:36:28;2.37;;;2.17;;
9481;SDS011;4779;48.062;11.672;2024-03-06T12:39:02;2.50;;;2.30;;
9481;SDS011;4779;48.062;11.672;2024-03-06T12:41:37;4.07;;;3.77;;
9481;SDS011;4779;48.062;11.672;2024-03-06T12:44:05;2.40;;;2.20;;
9481;SDS011;4779;48.062;11.672;2024-03-06T12:46:32;2.20;;;1.70;;
9481;SDS011;4779;48.062;11.672;2024-03-06T12:49:01;1.80;;;1.70;;
9481;SDS011;4779;48.062;11.672;2024-03-06T12:51:28;2.80;;;2.60;;
9481;SDS011;4779;48.062;11.672;2024-03-06T12:53:57;3.00;;;2.80;;
9481;SDS011;4779;48.062;11.672;2024-03-06T12:56:25;1.97;;;1.87;;
9481;SDS011;4779;48.062;11.672;2024-03-06T12:58:54;1.70;;;1.60;;
9481;SDS011;4779;48.062;11.672;2024-03-06T13:01:22;2.20;;;2.00;;
9481;SDS011;4779;48.062;11.672;2024-03-06T13:03:49;1.67;;;1.57;;
9481;SDS011;4779;48.062;11.672;2024-03-06T13:06:17;1.90;;;1.50;;
9481;SDS011;4779;48.062;11.672;2024-03-06T13:08:44;1.70;;;1.60;;
9481;SDS011;4779;48.062;11.672;2024-03-06T13:11:12;1.83;;;1.73;;
9481;SDS011;4779;48.062;11.672;2024-03-06T13:13:39;2.50;;;2.17;;
9481;SDS011;4779;48.062;11.672;2024-03-06T13:16:06;2.30;;;1.97;;
9481;SDS011;4779;48.062;11.672;2024-03-06T13:18:35;2.53;;;2.13;;
9481;SDS011;4779;48.062;11.672;2024-03-06T13:21:03;2.53;;;2.33;;
9481;SDS011;4779;48.062;11.672;2024-03-06T13:23:31;2.90;;;2.27;;
9481;SDS011;4779;48.062;11.672;2024-03-06T13:25:59;1.87;;;1.77;;
9481;SDS011;4779;48.062;11.672;2024-03-06T13:28:26;2.57;;;1.93;;
9481;SDS011;4779;48.062;11.672;2024-03-06T13:30:53;2.20;;;1.60;;
9481;SDS011;4779;48.062;11.672;2024-03-06T13:33:20;1.80;;;1.70;;
9481;SDS011;4779;48.062;11.672;2024-03-06T13:35:48;1.97;;;1.50;;
9481;SDS011;4779;48.062;11.672;2024-03-06T13:38:15;1.80;;;1.70;;
9481;SDS011;4779;48.062;11.672;2024-03-06T13:40:44;2.53;;;2.33;;
9481;SDS011;4779;48.062;11.672;2024-03-06T13:43:11;2.00;;;1.90;;
9481;SDS011;4779;48.062;11.672;2024-03-06T13:45:38;2.77;;;1.97;;
9481;SDS011;4779;48.062;11.672;2024-03-06T13:48:15;2.57;;;1.97;;
9481;SDS011;4779;48.062;11.672;2024-03-06T13:50:43;2.40;;;2.20;;
9481;SDS011;4779;48.062;11.672;2024-03-06T13:53:10;2.50;;;2.03;;
9481;SDS011;4779;48.062;11.672;2024-03-06T13:55:37;2.40;;;2.20;;
9481;SDS011;4779;48.062;11.672;2024-03-06T13:58:06;2.37;;;1.90;;
9481;SDS011;4779;48.062;11.672;2024-03-06T14:00:34;2.17;;;2.07;;
9481;SDS011;4779;48.062;11.672;2024-03-06T14:03:01;2.30;;;2.10;;
9481;SDS011;4779;48.062;11.672;2024-03-06T14:05:28;2.30;;;2.10;;
9481;SDS011;4779;48.062;11.672;2024-03-06T14:07:56;3.00;;;2.70;;
9481;SDS011;4779;48.062;11.672;2024-03-06T14:10:23;2.33;;;2.13;;
9481;SDS011;4779;48.062;11.672;2024-03-06T14:12:51;2.63;;;2.33;;
9481;SDS011;4779;48.062;11.672;2024-03-06T14:15:21;2.40;;;2.20;;
9481;SDS011;4779;48.062;11.672;2024-03-06T14:17:49;3.10;;;2.77;;
9481;SDS011;4779;48.062;11.672;2024-03-06T14:20:16;29.03;;;14.93;;
9481;SDS011;4779;48.062;11.672;2024-03-06T14:22:43;7.10;;;5.10;;
9481;SDS011;4779;48.062;11.672;2024-03-06T14:25:10;3.80;;;3.50;;
9481;SDS011;4779;48.062;11.672;2024-03-06T14:27:38;3.00;;;2.37;;
9481;SDS011;4779;48.062;11.672;2024-03-06T14:30:06;2.87;;;2.67;;
9481;SDS011;4779;48.062;11.672;2024-03-06T14:32:54;2.50;;;2.30;;
9481;SDS011;4779;48.062;11.672;2024-03-06T14:35:24;2.20;;;1.90;;
9481;SDS011;4779;48.062;11.672;2024-03-06T14:37:51;1.80;;;1.70;;
9481;SDS011;4779;48.062;11.672;2024-03-06T14:40:18;1.83;;;1.70;;
9481;SDS011;4779;48.062;11.672;2024-03-06T14:42:45;1.70;;;1.60;;
9481;SDS011;4779;48.062;11.672;2024-03-06T14:45:13;2.00;;;1.90;;
9481;SDS011;4779;48.062;11.672;2024-03-06T14:47:40;1.83;;;1.70;;
9481;SDS011;4779;48.062;11.672;2024-03-06T14:50:09;1.67;;;1.57;;
9481;SDS011;4779;48.062;11.672;2024-03-06T14:52:36;1.57;;;1.47;;
9481;SDS011;4779;48.062;11.672;2024-03-06T14:55:05;1.83;;;1.70;;
9481;SDS011;4779;48.062;11.672;2024-03-06T14:57:34;2.10;;;2.00;;
9481;SDS011;4779;48.062;11.672;2024-03-06T15:00:07;1.43;;;1.43;;
9481;SDS011;4779;48.062;11.672;2024-03-06T15:02:37;1.60;;;1.50;;